메인 페이지
METAR-TAF:

METAR-TAF

공항 :

Santa Fe Municipal Airport

샌타페이, 뉴멕시코, 미국

위도: 35-36-38N, 경도: 106-05-42W, 고도: 1934m

현재 날씨관측

예보는 22분 전, 22:53시(UTC)에 발표되었습니다.
서남서9kt남서풍과 풍을 오가는
온도 36°C
습도 8%
기압 1021 hPa
시정: 16.1km

METAR: KSAF 132253Z 25009KT 220V280 10SM 36/M03 A3015 RMK AO2 SLP086 T03611033 $

시각: 17:15 (23:15 UTC)

예보

예보는 5 시간 46분 전, 17:29시(UTC)에 발표되었습니다.
예보 대상 시간: 13일 18시부터 14일 18시까지 (UTC)
8kt
시정: 10km
고도 11000ft 상공 구름 조금
13일 1900시부터 (UTC)
서남서10kt, 순간 최대 풍속 16kt
시정: 10km
고도 15000ft 상공 구름 보통
14일 0200시부터 (UTC)
동남동8kt
시정: 10km
고도 15000ft 상공 구름 보통
14일 0800시부터 (UTC)
8kt
시정: 10km
고도 15000ft 상공 구름 보통
14일 1700시부터 (UTC)
15kt, 순간 최대 풍속 25kt
시정: 10km
고도 9000ft 상공 구름 보통
고도 15000ft 상공 구름 많음

TAF: KSAF 131729Z 1318/1418 35008KT P6SM FEW110 FM131900 25010G16KT P6SM SCT150 FM140200 12008KT P6SM SCT150 FM140800 01008KT P6SM SCT150 FM141700 27015G25KT P6SM SCT090 BKN150

4,000개 이상의 공항 관측 자료 및 예보 (METAR 및 TAF 보고).

지도상에서 검색 가능한 기상관측소가 노란 점과 빨간 점으로 표시되어 있습니다.

기상관측소 명을 보려면 표시 위로 마우스를 이동하세요.

날씨 관측과 예보를 보려면 클릭하세요.

지도 변경 : 확대하려면 엑스 표시가 있는 녹색 버튼, 축소하려면 빼기 표시가 있는 녹색 버튼, 다음 페이지의 지도를 보려면 녹색 화살표를 클릭하세요.


METAR-TAF: